Time;durP1;ratioP1;P1;durP2;ratioP2;P2;SDS_P1;SDS_P2;PMS_P1;PMS_P2;Temp;Humidity;BMP_temperature;BMP_pressure;BME280_temperature;BME280_humidity;BME280_pressure;Samples;Min_cycle;Max_cycle;Signal;HPM_P1;HPM_P2
2024/01/18 00:00:35;;;;;;;7.40;2.30;;;25.80;83.10;;;;;;5056461;28;20083;-82
2024/01/18 00:03:03;;;;;;;9.63;2.20;;;25.70;84.00;;;;;;5056288;28;20044;-79
2024/01/18 00:05:31;;;;;;;6.15;2.67;;;25.70;84.70;;;;;;5056387;28;20028;-81
2024/01/18 00:07:58;;;;;;;10.52;2.60;;;25.50;85.20;;;;;;5056244;28;20021;-79
2024/01/18 00:10:28;;;;;;;12.30;2.90;;;25.40;85.10;;;;;;5056357;28;20058;-79
2024/01/18 00:12:56;;;;;;;14.45;2.90;;;25.30;85.80;;;;;;5056189;28;20460;-83
2024/01/18 00:15:23;;;;;;;13.02;2.78;;;25.30;86.00;;;;;;5056225;28;20477;-81
2024/01/18 00:17:50;;;;;;;9.50;2.38;;;25.20;85.90;;;;;;5056262;28;20101;-82
2024/01/18 00:20:18;;;;;;;15.13;3.35;;;25.10;86.20;;;;;;5038139;28;20033;-79
2024/01/18 00:22:45;;;;;;;11.98;2.45;;;25.10;86.30;;;;;;5056133;28;20060;-79
2024/01/18 00:25:13;;;;;;;10.48;3.05;;;25.10;86.40;;;;;;5055977;28;20032;-79
2024/01/18 00:27:40;;;;;;;11.07;2.55;;;25.00;86.20;;;;;;5056097;28;20025;-84
2024/01/18 00:30:08;;;;;;;10.25;2.60;;;24.90;86.50;;;;;;5056057;28;20372;-78
2024/01/18 00:32:35;;;;;;;7.18;2.45;;;25.00;86.40;;;;;;5056007;28;20024;-85
2024/01/18 00:35:03;;;;;;;8.82;2.10;;;25.00;86.60;;;;;;5055778;28;20476;-82
2024/01/18 00:37:30;;;;;;;17.00;2.97;;;25.10;86.70;;;;;;5056041;28;20029;-79
2024/01/18 00:39:57;;;;;;;14.50;2.50;;;25.20;86.30;;;;;;5055638;28;20025;-81
2024/01/18 00:42:25;;;;;;;8.98;2.50;;;25.30;86.50;;;;;;5055696;28;20161;-80
2024/01/18 00:44:52;;;;;;;13.63;2.80;;;25.30;86.60;;;;;;5055852;28;20013;-80
2024/01/18 00:47:20;;;;;;;9.77;2.45;;;25.40;86.50;;;;;;5055767;28;20036;-79
2024/01/18 00:49:47;;;;;;;9.45;2.35;;;25.40;85.40;;;;;;5055734;28;20032;-86
2024/01/18 00:52:16;;;;;;;13.27;2.70;;;25.40;85.70;;;;;;5055767;28;20388;-79
2024/01/18 00:54:43;;;;;;;11.90;2.78;;;25.40;85.30;;;;;;5055545;28;20028;-79
2024/01/18 00:57:11;;;;;;;13.85;2.65;;;25.40;85.60;;;;;;5055500;28;20029;-80
2024/01/18 00:59:38;;;;;;;13.35;2.75;;;25.40;85.30;;;;;;5055416;28;20029;-84
2024/01/18 01:02:06;;;;;;;16.73;3.00;;;25.30;85.20;;;;;;5055162;28;20028;-79
2024/01/18 01:04:33;;;;;;;10.75;2.63;;;25.50;85.40;;;;;;5054017;28;20099;-78
2024/01/18 01:07:03;;;;;;;13.93;2.67;;;25.40;85.20;;;;;;5055290;28;20033;-79
2024/01/18 01:09:31;;;;;;;19.30;3.42;;;25.40;85.20;;;;;;5055405;28;20482;-80
2024/01/18 01:11:58;;;;;;;14.93;2.80;;;25.50;85.40;;;;;;5037094;28;20079;-78
2024/01/18 01:14:30;;;;;;;10.82;2.50;;;25.50;84.50;;;;;;5054898;28;20024;-79
2024/01/18 01:16:59;;;;;;;21.67;3.45;;;25.50;84.40;;;;;;5055167;28;20108;-83
2024/01/18 01:19:28;;;;;;;10.88;2.63;;;25.60;84.30;;;;;;5054896;28;20027;-79
2024/01/18 01:21:56;;;;;;;19.13;3.25;;;25.70;84.30;;;;;;5053229;28;20086;-86
2024/01/18 01:24:24;;;;;;;11.82;2.35;;;25.70;83.80;;;;;;5052766;28;20032;-79
2024/01/18 01:26:52;;;;;;;13.60;3.20;;;25.80;84.30;;;;;;5054900;28;20045;-78
2024/01/18 01:29:20;;;;;;;14.85;4.18;;;25.80;84.20;;;;;;5054709;28;20484;-79
2024/01/18 01:31:49;;;;;;;14.32;2.97;;;25.80;83.90;;;;;;5054691;28;20021;-83
2024/01/18 01:34:18;;;;;;;12.32;2.55;;;25.80;84.00;;;;;;5054281;28;20039;-79
2024/01/18 01:36:46;;;;;;;15.40;3.45;;;25.80;83.20;;;;;;5054618;28;20018;-79
2024/01/18 01:39:14;;;;;;;13.35;2.78;;;25.80;83.40;;;;;;5054734;28;20491;-80
2024/01/18 01:41:42;;;;;;;14.82;2.90;;;25.80;83.50;;;;;;5054337;28;20506;-79
2024/01/18 01:44:16;;;;;;;11.43;2.53;;;25.80;83.50;;;;;;5054508;28;20025;-80
2024/01/18 01:46:45;;;;;;;12.27;2.75;;;25.80;83.70;;;;;;5053360;28;20047;-79
2024/01/18 01:49:13;;;;;;;13.30;3.00;;;25.80;83.70;;;;;;5053275;28;20025;-83
2024/01/18 01:51:49;;;;;;;18.80;2.67;;;25.80;83.70;;;;;;5054294;28;20057;-79
2024/01/18 01:54:19;;;;;;;14.18;3.10;;;25.80;83.90;;;;;;5036682;28;20365;-79
2024/01/18 01:56:50;;;;;;;9.07;2.90;;;25.90;83.70;;;;;;5054155;28;20100;-79
2024/01/18 01:59:22;;;;;;;14.77;3.10;;;26.00;83.20;;;;;;5054218;28;20107;-79
2024/01/18 02:01:52;;;;;;;12.85;3.05;;;26.10;83.10;;;;;;5053773;28;20032;-80
2024/01/18 02:04:20;;;;;;;9.18;2.83;;;26.10;82.40;;;;;;5054141;28;20036;-80
2024/01/18 02:06:52;;;;;;;12.73;2.88;;;26.20;82.90;;;;;;5054031;28;20099;-77
2024/01/18 02:09:20;;;;;;;12.50;2.70;;;26.20;82.40;;;;;;5053946;28;20109;-82
2024/01/18 02:11:50;;;;;;;12.82;2.50;;;26.30;82.00;;;;;;5053657;28;20025;-83
2024/01/18 02:14:18;;;;;;;10.52;2.47;;;26.30;82.10;;;;;;5053451;28;20025;-77
2024/01/18 02:16:46;;;;;;;13.95;2.75;;;26.30;82.20;;;;;;5053804;28;20051;-77
2024/01/18 02:19:14;;;;;;;13.45;2.80;;;26.30;81.90;;;;;;5035857;28;20052;-82
2024/01/18 02:21:44;;;;;;;12.40;3.30;;;26.30;81.60;;;;;;5053572;28;20041;-77
2024/01/18 02:24:19;;;;;;;15.55;3.08;;;26.30;81.80;;;;;;5053736;28;20380;-82
2024/01/18 02:26:47;;;;;;;8.48;2.13;;;26.30;81.70;;;;;;5053624;28;20376;-78
2024/01/18 02:29:15;;;;;;;9.65;2.28;;;26.40;81.50;;;;;;5053265;28;20103;-79
2024/01/18 02:31:43;;;;;;;11.90;2.50;;;26.40;82.10;;;;;;5053057;28;20032;-77
2024/01/18 02:34:17;;;;;;;11.00;2.40;;;26.40;81.50;;;;;;5053512;28;20108;-77
2024/01/18 02:36:48;;;;;;;9.20;2.60;;;26.40;81.10;;;;;;5053455;28;20032;-83
2024/01/18 02:39:16;;;;;;;13.00;2.40;;;26.50;81.10;;;;;;5053510;28;20039;-79
2024/01/18 02:41:45;;;;;;;10.23;2.45;;;26.50;81.40;;;;;;5052869;28;20380;-77
2024/01/18 02:44:14;;;;;;;7.03;2.10;;;26.40;79.90;;;;;;5052158;28;20032;-79
2024/01/18 02:46:41;;;;;;;15.70;2.58;;;26.40;80.00;;;;;;5053330;28;20075;-77
2024/01/18 02:49:10;;;;;;;8.93;2.45;;;26.40;79.60;;;;;;5053363;28;20036;-78
2024/01/18 02:51:38;;;;;;;14.40;2.75;;;26.40;80.40;;;;;;5053280;28;20021;-79
2024/01/18 02:54:05;;;;;;;10.75;2.53;;;26.50;80.10;;;;;;5053064;28;20100;-78
2024/01/18 02:56:35;;;;;;;8.70;2.28;;;26.60;80.70;;;;;;5053263;28;20029;-78
2024/01/18 02:59:02;;;;;;;10.50;2.22;;;26.60;80.30;;;;;;5053028;28;20389;-78
2024/01/18 03:01:31;;;;;;;12.35;2.67;;;26.70;80.30;;;;;;5053164;28;20025;-81
2024/01/18 03:03:59;;;;;;;9.25;2.40;;;26.70;80.20;;;;;;5052845;28;20368;-80
2024/01/18 03:06:27;;;;;;;12.27;2.38;;;26.70;80.50;;;;;;5052928;28;20468;-78
2024/01/18 03:08:55;;;;;;;9.45;2.28;;;26.80;80.30;;;;;;5053158;28;20540;-79
2024/01/18 03:11:23;;;;;;;12.50;2.47;;;26.80;80.10;;;;;;5053113;28;20024;-77
2024/01/18 03:13:51;;;;;;;8.80;2.30;;;26.80;80.00;;;;;;5052749;28;20029;-78
2024/01/18 03:16:19;;;;;;;19.95;3.20;;;26.80;78.80;;;;;;5053130;28;20064;-79
2024/01/18 03:18:47;;;;;;;11.00;2.20;;;26.80;79.40;;;;;;5053118;28;20460;-82
2024/01/18 03:21:15;;;;;;;10.43;2.53;;;26.80;79.70;;;;;;5052579;28;20052;-80
2024/01/18 03:23:44;;;;;;;13.18;2.50;;;26.90;80.20;;;;;;5052821;28;20032;-80
2024/01/18 03:26:12;;;;;;;12.65;2.40;;;26.90;79.60;;;;;;5052226;28;20021;-80
2024/01/18 03:28:40;;;;;;;12.40;2.58;;;26.90;79.80;;;;;;5052871;28;20029;-79
2024/01/18 03:31:11;;;;;;;14.73;3.67;;;26.90;80.00;;;;;;5052976;28;20102;-81
2024/01/18 03:33:39;;;;;;;12.93;2.80;;;26.80;79.80;;;;;;5053006;28;20056;-83
2024/01/18 03:36:10;;;;;;;17.30;2.67;;;26.80;79.40;;;;;;5052590;28;20021;-80
2024/01/18 03:38:37;;;;;;;10.13;3.10;;;26.90;79.60;;;;;;5051599;28;20068;-79
2024/01/18 03:41:05;;;;;;;16.48;2.60;;;26.90;79.60;;;;;;5052789;28;20017;-85
2024/01/18 03:43:32;;;;;;;10.73;2.80;;;26.90;79.80;;;;;;5052774;28;20465;-79
2024/01/18 03:45:59;;;;;;;10.82;2.25;;;27.00;80.00;;;;;;5052435;28;20033;-79
2024/01/18 03:48:27;;;;;;;12.50;3.33;;;26.90;79.50;;;;;;5053008;28;20029;-80
2024/01/18 03:50:54;;;;;;;15.38;2.30;;;26.90;79.30;;;;;;5053385;28;20029;-78
2024/01/18 03:53:22;;;;;;;13.13;2.83;;;27.00;79.00;;;;;;5054321;28;20025;-79
2024/01/18 03:55:49;;;;;;;10.25;2.33;;;27.00;79.40;;;;;;5054949;28;20025;-79
2024/01/18 03:58:16;;;;;;;14.85;3.08;;;27.00;79.50;;;;;;5054094;28;20055;-80
2024/01/18 04:00:44;;;;;;;13.70;2.75;;;27.00;79.50;;;;;;5053493;28;20063;-80
2024/01/18 04:03:11;;;;;;;9.32;2.60;;;27.00;79.30;;;;;;5052931;28;20108;-79
2024/01/18 04:05:38;;;;;;;11.23;2.58;;;27.00;79.20;;;;;;5054233;28;20025;-79
2024/01/18 04:08:06;;;;;;;6.55;2.20;;;27.00;79.30;;;;;;5053239;28;20025;-78
2024/01/18 04:10:33;;;;;;;13.35;2.75;;;27.00;79.10;;;;;;5054175;28;20024;-81
2024/01/18 04:13:00;;;;;;;10.20;2.25;;;27.00;79.10;;;;;;5053938;28;20025;-79
2024/01/18 04:15:28;;;;;;;9.18;2.47;;;27.00;79.20;;;;;;5053749;28;20122;-79
2024/01/18 04:17:55;;;;;;;12.95;2.92;;;27.00;79.10;;;;;;5053347;28;20026;-78
2024/01/18 04:20:27;;;;;;;18.30;2.78;;;27.00;78.80;;;;;;5052858;28;20036;-81
2024/01/18 04:22:56;;;;;;;11.00;2.75;;;27.00;78.50;;;;;;5052197;28;20115;-81
2024/01/18 04:25:24;;;;;;;13.80;2.50;;;27.10;78.60;;;;;;5052362;28;20021;-79
2024/01/18 04:27:51;;;;;;;11.68;2.47;;;27.00;77.70;;;;;;5052042;28;20060;-81
2024/01/18 04:30:19;;;;;;;13.15;2.75;;;27.10;78.50;;;;;;5052226;28;20025;-79
2024/01/18 04:32:46;;;;;;;9.40;2.55;;;27.10;78.00;;;;;;5052593;28;20051;-81
2024/01/18 04:35:16;;;;;;;13.25;2.70;;;27.10;77.70;;;;;;5051851;28;20100;-81
2024/01/18 04:37:44;;;;;;;10.27;2.35;;;27.20;77.60;;;;;;5052838;28;20106;-81
2024/01/18 04:40:11;;;;;;;15.35;2.35;;;27.20;77.10;;;;;;5055876;28;20170;-81
2024/01/18 04:42:39;;;;;;;9.95;2.05;;;27.20;77.40;;;;;;5055728;28;20037;-81
2024/01/18 04:45:07;;;;;;;11.88;2.22;;;27.20;77.90;;;;;;5055674;28;20060;-82
2024/01/18 04:47:34;;;;;;;8.88;2.10;;;27.20;77.50;;;;;;5055707;28;20021;-80
2024/01/18 04:50:03;;;;;;;9.43;3.05;;;27.20;77.60;;;;;;5055351;28;20017;-80
2024/01/18 04:52:32;;;;;;;8.93;2.10;;;27.30;78.30;;;;;;5055868;28;20407;-81
2024/01/18 04:55:03;;;;;;;11.63;2.45;;;27.30;78.50;;;;;;5055687;28;20031;-86
2024/01/18 04:57:31;;;;;;;10.63;2.45;;;27.30;78.20;;;;;;5055441;28;20461;-81
2024/01/18 04:59:59;;;;;;;11.25;2.53;;;27.20;78.50;;;;;;5055251;28;20052;-80
2024/01/18 05:02:26;;;;;;;9.15;2.42;;;27.20;78.20;;;;;;5055144;28;20037;-81
2024/01/18 05:04:54;;;;;;;11.40;2.78;;;27.20;78.60;;;;;;5055289;28;20075;-81
2024/01/18 05:07:22;;;;;;;19.05;2.88;;;27.20;78.60;;;;;;5055243;28;20383;-80
2024/01/18 05:09:50;;;;;;;10.10;2.60;;;27.20;78.70;;;;;;5054898;28;20464;-81
2024/01/18 05:12:17;;;;;;;12.30;2.70;;;27.20;78.90;;;;;;5055332;28;20029;-81
2024/01/18 05:14:45;;;;;;;7.55;2.20;;;27.20;78.60;;;;;;5054946;28;20052;-81
2024/01/18 05:17:16;;;;;;;13.18;2.88;;;27.10;79.00;;;;;;5055201;28;20032;-81
2024/01/18 05:19:43;;;;;;;12.18;2.17;;;27.10;78.50;;;;;;5054863;28;20112;-80
2024/01/18 05:22:12;;;;;;;10.75;2.80;;;27.10;78.50;;;;;;5055031;28;20385;-83
2024/01/18 05:24:40;;;;;;;13.02;2.88;;;27.00;78.20;;;;;;5055042;28;20070;-83
2024/01/18 05:27:09;;;;;;;13.32;2.58;;;27.10;77.70;;;;;;5055086;28;20032;-81
2024/01/18 05:29:37;;;;;;;12.02;2.40;;;27.00;78.00;;;;;;5054981;28;20021;-81
2024/01/18 05:32:04;;;;;;;7.10;2.13;;;27.10;78.10;;;;;;5054609;28;20102;-80
2024/01/18 05:34:32;;;;;;;5.20;2.25;;;27.10;78.40;;;;;;5054832;28;20025;-81
2024/01/18 05:37:02;;;;;;;7.72;1.77;;;27.10;78.30;;;;;;5054767;28;20099;-81
2024/01/18 05:39:29;;;;;;;13.32;2.50;;;27.10;78.70;;;;;;5054888;28;20053;-80
2024/01/18 05:41:57;;;;;;;15.07;3.00;;;27.10;78.40;;;;;;5054485;28;20064;-80
2024/01/18 05:44:24;;;;;;;14.10;2.80;;;27.10;77.90;;;;;;5054738;28;20063;-81
2024/01/18 05:46:52;;;;;;;6.80;2.13;;;27.10;78.50;;;;;;5054676;28;20017;-85
2024/01/18 05:49:19;;;;;;;12.38;2.67;;;27.10;78.70;;;;;;5053804;28;20052;-80
2024/01/18 05:51:46;;;;;;;12.95;2.53;;;27.10;78.60;;;;;;5054556;28;20472;-80
2024/01/18 05:54:14;;;;;;;11.90;2.88;;;27.10;78.10;;;;;;5054455;28;20029;-81
2024/01/18 05:56:41;;;;;;;14.05;2.67;;;27.10;77.80;;;;;;5054464;28;20021;-81
2024/01/18 05:59:09;;;;;;;6.75;2.38;;;27.10;77.60;;;;;;5054459;28;20021;-81
2024/01/18 06:01:36;;;;;;;15.45;2.67;;;27.20;78.00;;;;;;5054351;28;20021;-80
2024/01/18 06:04:04;;;;;;;14.35;3.00;;;27.20;78.20;;;;;;5054129;28;20109;-80
2024/01/18 06:06:31;;;;;;;7.72;2.20;;;27.10;77.80;;;;;;5054313;28;20122;-81
2024/01/18 06:08:59;;;;;;;9.77;2.13;;;27.20;78.10;;;;;;5054246;28;20028;-85
2024/01/18 06:11:26;;;;;;;11.10;2.20;;;27.10;78.20;;;;;;5054127;28;20049;-81
2024/01/18 06:13:54;;;;;;;12.68;2.47;;;27.20;78.20;;;;;;5053913;28;20021;-81
2024/01/18 06:16:21;;;;;;;12.40;2.88;;;27.20;78.20;;;;;;5054034;28;20411;-80
2024/01/18 06:18:48;;;;;;;9.52;2.60;;;27.20;78.00;;;;;;5054000;28;20021;-81
2024/01/18 06:21:16;;;;;;;12.60;2.58;;;27.20;78.10;;;;;;5053972;28;20020;-82
2024/01/18 06:23:43;;;;;;;11.80;2.70;;;27.20;78.00;;;;;;5053602;28;20072;-81
2024/01/18 06:26:13;;;;;;;13.18;2.60;;;27.20;78.30;;;;;;5053957;28;20029;-81
2024/01/18 06:28:41;;;;;;;14.77;3.05;;;27.20;78.20;;;;;;5053682;28;20086;-84
2024/01/18 06:31:09;;;;;;;8.02;2.85;;;27.20;78.40;;;;;;5054296;28;20079;-80
2024/01/18 06:33:36;;;;;;;11.55;2.92;;;27.20;78.00;;;;;;5053447;28;20029;-82
2024/01/18 06:36:04;;;;;;;13.68;2.30;;;27.20;77.80;;;;;;5053481;28;20067;-81
2024/01/18 06:38:31;;;;;;;12.35;2.70;;;27.20;78.20;;;;;;5053635;28;20024;-81
2024/01/18 06:40:59;;;;;;;11.65;2.40;;;27.20;78.30;;;;;;5053640;28;20095;-80
2024/01/18 06:43:27;;;;;;;11.38;2.92;;;27.20;77.90;;;;;;5053507;28;20121;-82
2024/01/18 06:45:55;;;;;;;17.08;3.92;;;27.20;77.60;;;;;;5053254;28;20063;-79
2024/01/18 06:48:23;;;;;;;14.88;2.92;;;27.20;77.30;;;;;;5035457;28;20025;-80
2024/01/18 06:50:51;;;;;;;13.77;2.72;;;27.20;77.60;;;;;;5053509;28;20071;-80
2024/01/18 06:53:19;;;;;;;13.95;2.60;;;27.20;77.70;;;;;;5053561;28;20020;-81
2024/01/18 06:55:46;;;;;;;13.38;3.20;;;27.30;78.10;;;;;;5053188;28;20024;-80
2024/01/18 06:58:14;;;;;;;12.70;2.83;;;27.20;77.90;;;;;;5053080;28;20021;-81
2024/01/18 07:00:41;;;;;;;13.00;2.45;;;27.20;77.80;;;;;;5052981;28;20074;-82
2024/01/18 07:03:09;;;;;;;15.80;2.53;;;27.20;77.70;;;;;;5052535;28;20078;-81
2024/01/18 07:05:36;;;;;;;9.63;2.42;;;27.20;77.50;;;;;;5052878;28;20534;-81
2024/01/18 07:08:05;;;;;;;13.05;2.90;;;27.10;77.60;;;;;;5052571;28;20476;-81
2024/01/18 07:10:33;;;;;;;15.38;2.95;;;27.20;77.60;;;;;;5052434;28;20480;-85
2024/01/18 07:13:00;;;;;;;14.38;2.95;;;27.20;77.90;;;;;;5052766;28;20056;-80
2024/01/18 07:15:27;;;;;;;13.68;2.97;;;27.20;77.70;;;;;;5052515;28;20483;-81
2024/01/18 07:17:55;;;;;;;9.40;2.28;;;27.10;78.00;;;;;;5052195;28;20468;-81
2024/01/18 07:20:22;;;;;;;12.20;2.80;;;27.20;78.00;;;;;;5052479;28;20029;-80
2024/01/18 07:22:49;;;;;;;11.95;2.97;;;27.10;78.10;;;;;;5052387;28;20051;-86
2024/01/18 07:25:17;;;;;;;9.40;2.38;;;27.10;78.40;;;;;;5052384;28;20021;-81
2024/01/18 07:27:44;;;;;;;11.98;2.90;;;27.20;78.70;;;;;;5052177;28;20056;-85
2024/01/18 07:30:16;;;;;;;20.08;3.55;;;27.10;78.30;;;;;;5052507;28;20021;-83
2024/01/18 07:32:45;;;;;;;16.60;4.03;;;27.10;78.20;;;;;;5052173;28;20124;-80
2024/01/18 07:35:13;;;;;;;12.52;3.00;;;27.10;78.20;;;;;;5052450;28;20411;-81
2024/01/18 07:37:41;;;;;;;8.93;2.58;;;27.10;78.70;;;;;;5052333;28;20124;-81
2024/01/18 07:40:09;;;;;;;10.18;2.40;;;27.10;78.70;;;;;;5052398;28;20017;-82
2024/01/18 07:42:37;;;;;;;16.10;3.10;;;27.10;78.70;;;;;;5052234;28;20067;-80
2024/01/18 07:45:07;;;;;;;11.18;2.95;;;27.00;78.70;;;;;;5052131;28;20017;-82
2024/01/18 07:47:34;;;;;;;9.38;2.90;;;27.00;78.50;;;;;;5052139;28;20068;-83
2024/01/18 07:50:02;;;;;;;10.57;3.25;;;27.00;78.40;;;;;;5051968;28;20899;-81
2024/01/18 07:52:30;;;;;;;14.40;3.88;;;26.90;78.50;;;;;;5052271;28;20150;-80
2024/01/18 07:54:57;;;;;;;10.52;3.42;;;26.80;78.60;;;;;;5050965;28;20036;-81
2024/01/18 07:57:25;;;;;;;12.07;3.33;;;26.80;79.00;;;;;;5052157;28;20030;-82
2024/01/18 07:59:52;;;;;;;10.60;2.85;;;26.70;78.70;;;;;;5051892;28;20021;-81
2024/01/18 08:02:19;;;;;;;10.50;3.08;;;26.80;79.30;;;;;;5052127;28;20040;-80
2024/01/18 08:04:47;;;;;;;8.40;2.47;;;26.70;79.10;;;;;;5052077;28;20043;-81
2024/01/18 08:07:15;;;;;;;16.10;3.47;;;26.70;79.10;;;;;;5052043;28;20024;-81
2024/01/18 08:09:43;;;;;;;10.98;2.83;;;26.60;79.20;;;;;;5051901;28;20047;-84
2024/01/18 08:12:10;;;;;;;12.45;3.13;;;26.60;79.50;;;;;;5051976;28;20377;-81
2024/01/18 08:14:44;;;;;;;10.35;2.95;;;26.40;79.70;;;;;;5055740;28;20025;-85
2024/01/18 08:17:11;;;;;;;9.98;2.60;;;26.40;79.90;;;;;;5055815;28;20495;-81
2024/01/18 08:19:39;;;;;;;11.07;2.83;;;26.30;80.00;;;;;;5055768;28;20472;-81
2024/01/18 08:22:08;;;;;;;14.13;3.60;;;26.30;80.00;;;;;;5055671;28;20384;-85
2024/01/18 08:24:36;;;;;;;10.13;2.30;;;26.20;80.20;;;;;;5055848;28;20078;-84
2024/01/18 08:27:04;;;;;;;14.75;3.20;;;26.10;80.40;;;;;;5055893;28;20387;-83
2024/01/18 08:29:31;;;;;;;11.80;2.80;;;26.10;80.70;;;;;;5055620;28;20029;-82
2024/01/18 08:32:00;;;;;;;10.98;3.10;;;26.00;80.80;;;;;;5055557;28;20025;-81
2024/01/18 08:34:27;;;;;;;12.05;2.88;;;25.90;81.10;;;;;;5055529;28;20106;-80
2024/01/18 08:36:55;;;;;;;8.35;2.90;;;25.90;81.30;;;;;;5055601;28;20075;-84
2024/01/18 08:39:22;;;;;;;8.77;2.60;;;25.90;81.50;;;;;;5055532;28;20070;-82
2024/01/18 08:41:49;;;;;;;14.32;3.13;;;25.80;81.60;;;;;;5055313;28;20028;-81
2024/01/18 08:44:17;;;;;;;14.15;2.65;;;25.80;81.80;;;;;;5055408;28;20037;-86
2024/01/18 08:46:48;;;;;;;12.25;3.00;;;25.80;82.10;;;;;;5055468;28;20021;-80
2024/01/18 08:49:16;;;;;;;9.68;2.78;;;25.70;82.10;;;;;;5055235;28;20029;-81
2024/01/18 08:51:43;;;;;;;11.90;3.30;;;25.70;82.30;;;;;;5055027;28;20029;-81
2024/01/18 08:54:11;;;;;;;8.88;2.83;;;25.70;82.50;;;;;;5055193;28;20052;-82
2024/01/18 08:56:39;;;;;;;14.68;3.70;;;25.70;82.60;;;;;;5055188;28;20024;-86
2024/01/18 08:59:07;;;;;;;9.40;3.40;;;25.60;82.70;;;;;;5055277;28;20116;-81
2024/01/18 09:01:34;;;;;;;13.20;4.03;;;25.50;82.80;;;;;;5055094;28;20052;-82
2024/01/18 09:04:05;;;;;;;8.15;2.90;;;25.50;82.90;;;;;;5054681;28;20037;-82
2024/01/18 09:06:32;;;;;;;10.43;2.80;;;25.50;83.00;;;;;;5054380;28;20025;-81
2024/01/18 09:08:59;;;;;;;9.55;3.17;;;25.50;83.30;;;;;;5055085;28;20055;-82
2024/01/18 09:11:28;;;;;;;11.20;3.60;;;25.50;83.30;;;;;;5037082;28;20043;-83
2024/01/18 09:13:56;;;;;;;8.18;2.63;;;25.40;83.40;;;;;;5054663;28;20029;-82
2024/01/18 09:16:23;;;;;;;10.18;3.35;;;25.40;83.50;;;;;;5054646;28;20041;-81
2024/01/18 09:18:50;;;;;;;9.02;2.63;;;25.40;83.70;;;;;;5054655;28;20024;-82
2024/01/18 09:21:18;;;;;;;9.45;3.08;;;25.30;83.70;;;;;;5054775;28;20017;-83
2024/01/18 09:23:45;;;;;;;6.03;2.35;;;25.30;83.70;;;;;;5053765;28;20033;-81
2024/01/18 09:26:12;;;;;;;12.40;2.97;;;25.30;83.90;;;;;;5054223;28;20017;-81
2024/01/18 09:28:40;;;;;;;8.68;2.47;;;25.30;84.00;;;;;;5054645;28;20024;-82
2024/01/18 09:31:09;;;;;;;9.82;2.70;;;25.30;84.00;;;;;;5054563;28;20024;-82
2024/01/18 09:33:40;;;;;;;14.57;3.10;;;25.30;84.10;;;;;;5054454;28;20027;-82
2024/01/18 09:36:08;;;;;;;7.75;2.60;;;25.30;84.20;;;;;;5054497;28;20078;-81
2024/01/18 09:38:36;;;;;;;7.25;3.00;;;25.30;84.20;;;;;;5054439;28;20013;-82
2024/01/18 09:41:07;;;;;;;8.95;2.88;;;25.20;84.20;;;;;;5054351;28;20036;-82
2024/01/18 09:43:39;;;;;;;10.63;2.70;;;25.20;84.50;;;;;;5054309;28;20033;-82
2024/01/18 09:46:11;;;;;;;7.57;2.45;;;25.20;84.50;;;;;;5054096;28;20025;-82
2024/01/18 09:48:40;;;;;;;12.40;3.50;;;25.20;84.70;;;;;;5054042;28;20103;-81
2024/01/18 09:51:09;;;;;;;8.32;2.75;;;25.20;84.70;;;;;;5054254;28;20049;-82
2024/01/18 09:53:39;;;;;;;9.02;2.95;;;25.20;84.80;;;;;;5054168;28;20028;-81
2024/01/18 09:56:36;;;;;;;12.90;3.22;;;25.10;84.90;;;;;;5054018;28;20469;-82
2024/01/18 09:59:04;;;;;;;14.18;3.50;;;25.10;84.90;;;;;;5052976;28;20032;-83
2024/01/18 10:01:32;;;;;;;10.38;3.03;;;25.10;84.90;;;;;;5053963;28;20114;-82
2024/01/18 10:03:59;;;;;;;9.00;2.95;;;25.10;84.70;;;;;;5053590;28;20032;-86
2024/01/18 10:06:27;;;;;;;8.43;2.72;;;25.00;84.90;;;;;;5053751;28;20066;-82
2024/01/18 10:08:54;;;;;;;9.75;3.10;;;25.00;85.00;;;;;;5053835;28;20021;-82
2024/01/18 10:11:22;;;;;;;11.88;3.17;;;25.00;85.20;;;;;;5053850;28;20097;-80
2024/01/18 10:13:59;;;;;;;22.75;5.78;;;25.00;85.30;;;;;;5053540;28;20013;-83
2024/01/18 10:16:30;;;;;;;12.75;3.47;;;24.90;85.10;;;;;;5053626;28;20427;-82
2024/01/18 10:19:02;;;;;;;10.85;3.20;;;24.90;85.10;;;;;;5053692;28;20086;-82
2024/01/18 10:21:31;;;;;;;7.88;3.08;;;24.80;85.20;;;;;;5053435;28;20031;-82
2024/01/18 10:23:59;;;;;;;11.57;3.72;;;24.80;85.30;;;;;;5053368;28;20483;-81
2024/01/18 10:26:31;;;;;;;13.57;3.42;;;24.80;85.50;;;;;;5053646;28;20092;-85
2024/01/18 10:28:59;;;;;;;12.77;3.47;;;24.70;85.30;;;;;;5053292;28;20444;-81
2024/01/18 10:31:27;;;;;;;10.90;4.18;;;24.70;85.50;;;;;;5053380;28;20385;-82
2024/01/18 10:33:55;;;;;;;9.68;4.93;;;24.70;85.50;;;;;;5052991;28;20024;-82
2024/01/18 10:36:23;;;;;;;12.88;5.25;;;24.70;85.60;;;;;;5053087;28;20025;-83
2024/01/18 10:38:51;;;;;;;17.85;6.05;;;24.60;85.70;;;;;;5053183;28;20119;-82
2024/01/18 10:41:21;;;;;;;16.38;6.78;;;24.60;85.70;;;;;;5052094;28;20036;-83
2024/01/18 10:43:49;;;;;;;16.50;6.05;;;24.60;85.80;;;;;;5052903;28;20423;-84
2024/01/18 10:46:19;;;;;;;16.90;5.75;;;24.50;85.90;;;;;;5053029;28;20028;-83
2024/01/18 10:48:52;;;;;;;11.73;4.82;;;24.50;86.00;;;;;;5053030;28;20426;-85
2024/01/18 10:51:21;;;;;;;13.18;5.20;;;24.50;86.10;;;;;;5053051;28;20104;-82
2024/01/18 10:53:50;;;;;;;13.13;5.05;;;24.50;86.30;;;;;;5052867;28;20096;-83
2024/01/18 10:56:22;;;;;;;12.48;4.07;;;24.50;86.30;;;;;;5053073;28;20025;-82
2024/01/18 10:58:53;;;;;;;14.38;4.32;;;24.50;86.50;;;;;;5052762;28;20025;-82
2024/01/18 11:01:21;;;;;;;10.85;3.78;;;24.50;86.50;;;;;;5052914;28;20033;-82
2024/01/18 11:03:49;;;;;;;12.27;3.50;;;24.50;86.40;;;;;;5052600;28;20044;-82
2024/01/18 11:06:16;;;;;;;10.23;3.20;;;24.50;86.50;;;;;;5052794;28;20022;-81
2024/01/18 11:08:46;;;;;;;11.60;3.20;;;24.40;86.50;;;;;;5052791;28;20108;-82
2024/01/18 11:11:14;;;;;;;14.73;3.50;;;24.40;86.40;;;;;;5052605;28;20100;-82
2024/01/18 11:13:41;;;;;;;8.63;2.92;;;24.40;86.60;;;;;;5052575;28;20032;-80
2024/01/18 11:16:09;;;;;;;9.18;3.35;;;24.40;86.60;;;;;;5052452;28;20602;-81
2024/01/18 11:18:36;;;;;;;10.43;3.00;;;24.30;86.60;;;;;;5052694;28;20029;-86
2024/01/18 11:21:06;;;;;;;9.50;2.92;;;24.30;86.80;;;;;;5051981;28;20492;-82
2024/01/18 11:23:45;;;;;;;14.38;3.72;;;24.30;87.00;;;;;;5052256;28;20488;-82
2024/01/18 11:26:25;;;;;;;12.40;3.67;;;24.30;86.90;;;;;;5052479;28;20408;-82
2024/01/18 11:29:26;;;;;;;16.88;3.70;;;24.30;87.00;;;;;;5052315;28;20016;-83
2024/01/18 11:31:54;;;;;;;9.52;3.30;;;24.30;87.30;;;;;;5051907;28;20021;-82
2024/01/18 11:34:37;;;;;;;11.05;3.08;;;24.30;87.10;;;;;;5051140;28;20040;-82
2024/01/18 11:37:18;;;;;;;12.00;3.60;;;24.20;87.20;;;;;;5052215;28;20029;-82
2024/01/18 11:39:51;;;;;;;10.13;2.60;;;24.30;87.00;;;;;;5034112;28;20116;-85
2024/01/18 11:42:20;;;;;;;8.05;2.90;;;24.10;85.40;;;;;;5052101;28;20492;-82
2024/01/18 11:45:09;;;;;;;6.15;2.00;;;24.10;85.60;;;;;;5052189;28;20049;-82
2024/01/18 11:47:37;;;;;;;8.60;2.75;;;24.00;84.80;;;;;;5051448;28;20088;-82
2024/01/18 11:50:10;;;;;;;6.00;1.95;;;24.00;84.50;;;;;;5052074;28;20028;-82
2024/01/18 11:52:43;;;;;;;4.38;1.88;;;24.00;84.50;;;;;;5052218;28;20116;-83
2024/01/18 11:55:17;;;;;;;5.00;1.67;;;23.90;83.00;;;;;;5052055;28;20021;-81
2024/01/18 11:57:46;;;;;;;7.30;1.73;;;23.80;83.00;;;;;;5051353;28;20094;-81
2024/01/18 12:00:14;;;;;;;4.53;1.90;;;23.80;82.50;;;;;;5052146;28;20063;-83
2024/01/18 12:02:45;;;;;;;7.20;1.60;;;23.70;82.60;;;;;;5052085;28;20461;-82
2024/01/18 12:05:12;;;;;;;5.38;1.50;;;23.70;82.10;;;;;;5052089;28;20021;-81
2024/01/18 12:07:43;;;;;;;7.20;1.85;;;23.60;81.10;;;;;;5052200;28;20029;-81
2024/01/18 12:10:14;;;;;;;4.22;1.65;;;23.60;80.80;;;;;;5050863;28;20031;-82
2024/01/18 12:12:44;;;;;;;4.55;1.50;;;23.50;81.30;;;;;;5052233;28;20068;-81
2024/01/18 12:15:18;;;;;;;10.05;1.95;;;23.40;80.70;;;;;;5052216;28;20041;-82
2024/01/18 12:17:46;;;;;;;6.10;2.00;;;23.40;81.70;;;;;;5052108;28;20033;-81
2024/01/18 12:20:15;;;;;;;3.42;1.42;;;23.30;81.60;;;;;;5052569;28;20086;-82
2024/01/18 12:22:43;;;;;;;7.18;1.70;;;23.30;81.20;;;;;;5052303;28;20033;-82
2024/01/18 12:25:11;;;;;;;6.32;2.03;;;23.10;79.50;;;;;;5052396;28;20021;-82
2024/01/18 12:27:40;;;;;;;6.60;1.67;;;23.20;80.90;;;;;;5052439;28;20023;-85
2024/01/18 12:30:08;;;;;;;4.53;1.40;;;23.10;81.30;;;;;;5052290;28;20028;-82
2024/01/18 12:32:37;;;;;;;3.20;1.45;;;23.10;81.30;;;;;;5052203;28;20021;-82
2024/01/18 12:35:05;;;;;;;7.47;1.50;;;23.00;80.90;;;;;;5052337;28;20480;-82
2024/01/18 12:37:33;;;;;;;3.08;1.15;;;22.90;80.00;;;;;;5052282;28;20025;-81
2024/01/18 12:40:00;;;;;;;5.60;1.20;;;22.80;78.60;;;;;;5051996;28;20025;-82
2024/01/18 12:42:27;;;;;;;2.75;1.15;;;22.80;79.30;;;;;;5051921;28;20056;-82
2024/01/18 12:44:57;;;;;;;4.18;1.10;;;22.80;78.70;;;;;;5052050;28;20029;-86
2024/01/18 12:47:25;;;;;;;2.20;1.00;;;22.80;79.40;;;;;;5051808;28;20037;-82